Time;durP1;ratioP1;P1;durP2;ratioP2;P2;SDS_P1;SDS_P2;PMS_P1;PMS_P2;Temp;Humidity;BMP_temperature;BMP_pressure;BME280_temperature;BME280_humidity;BME280_pressure;Samples;Min_cycle;Max_cycle;Signal;HPM_P1;HPM_P2
2023/10/03 00:00:27;;;;;;;30.70;21.10;;;21.80;1.00;;;;;;6309016;22;20448;-39
2023/10/03 00:02:57;;;;;;;29.57;18.93;;;21.70;1.00;;;;;;6308601;22;20696;-40
2023/10/03 00:05:23;;;;;;;29.40;20.20;;;21.70;1.00;;;;;;6310652;22;20415;-37
2023/10/03 00:07:51;;;;;;;29.70;19.80;;;21.70;1.00;;;;;;6258158;22;20381;-39
2023/10/03 00:10:17;;;;;;;30.87;21.03;;;21.70;1.00;;;;;;6283447;22;20666;-41
2023/10/03 00:12:48;;;;;;;29.00;19.87;;;21.70;1.00;;;;;;6257269;22;20405;-40
2023/10/03 00:15:24;;;;;;;34.03;19.67;;;21.70;1.00;;;;;;6284484;22;20390;-40
2023/10/03 00:17:54;;;;;;;29.43;20.60;;;21.70;1.00;;;;;;6270806;22;20477;-38
2023/10/03 00:20:22;;;;;;;28.90;19.80;;;21.70;1.00;;;;;;6277421;22;20438;-39
2023/10/03 00:22:49;;;;;;;29.23;19.77;;;21.60;1.00;;;;;;6226543;22;20367;-39
2023/10/03 00:25:18;;;;;;;29.30;19.27;;;21.60;1.00;;;;;;6224323;22;20410;-39
2023/10/03 00:27:51;;;;;;;31.67;20.37;;;21.60;1.00;;;;;;6277112;22;20383;-38
2023/10/03 00:30:21;;;;;;;28.70;20.07;;;21.60;1.00;;;;;;6278533;22;20460;-38
2023/10/03 00:32:53;;;;;;;27.80;18.50;;;21.60;1.00;;;;;;6278859;22;20392;-40
2023/10/03 00:35:22;;;;;;;27.50;18.57;;;21.60;1.00;;;;;;6278059;22;20383;-38
2023/10/03 00:37:52;;;;;;;25.93;17.70;;;21.60;1.00;;;;;;6250905;22;20356;-39
2023/10/03 00:42:48;;;;;;;27.20;19.80;;;21.60;1.00;;;;;;6277016;22;20813;-39
2023/10/03 00:45:25;;;;;;;28.70;19.47;;;21.50;1.00;;;;;;6277168;22;20418;-39
2023/10/03 00:47:55;;;;;;;28.03;20.53;;;21.50;1.00;;;;;;6277380;22;20731;-40
2023/10/03 00:50:25;;;;;;;25.37;18.43;;;21.50;1.00;;;;;;6276762;22;20467;-40
2023/10/03 00:53:04;;;;;;;28.00;18.57;;;21.50;1.00;;;;;;6275869;22;20354;-39
2023/10/03 00:55:35;;;;;;;25.10;18.57;;;21.50;1.00;;;;;;6275523;22;20464;-42
2023/10/03 01:00:38;;;;;;;27.50;19.33;;;21.50;1.00;;;;;;6276816;22;20427;-41
2023/10/03 01:03:06;;;;;;;28.90;19.37;;;21.50;1.00;;;;;;6277149;22;20387;-37
2023/10/03 01:05:33;;;;;;;24.07;17.23;;;21.40;1.00;;;;;;6277745;22;20752;-38
2023/10/03 01:07:58;;;;;;;25.37;19.33;;;21.40;1.00;;;;;;6277441;22;20485;-40
2023/10/03 01:10:24;;;;;;;27.20;18.63;;;21.40;1.00;;;;;;6277522;22;20359;-40
2023/10/03 01:12:54;;;;;;;27.30;18.80;;;21.40;1.00;;;;;;6278498;22;20474;-41
2023/10/03 01:15:20;;;;;;;25.23;18.53;;;21.40;1.00;;;;;;6278614;22;20496;-41
2023/10/03 01:17:53;;;;;;;27.07;17.73;;;21.40;1.00;;;;;;6287846;22;20804;-41
2023/10/03 01:20:34;;;;;;;24.27;17.30;;;21.40;1.00;;;;;;6307458;22;20486;-38
2023/10/03 01:23:04;;;;;;;27.07;19.20;;;21.30;1.00;;;;;;6307077;22;20351;-40
2023/10/03 01:25:34;;;;;;;29.03;18.73;;;21.40;1.00;;;;;;6306786;22;20358;-41
2023/10/03 01:28:00;;;;;;;28.90;19.40;;;21.30;1.00;;;;;;6306610;22;20443;-38
2023/10/03 01:30:26;;;;;;;24.47;17.23;;;21.30;1.00;;;;;;6306694;22;20390;-39
2023/10/03 01:32:56;;;;;;;26.97;17.47;;;21.30;1.00;;;;;;6306607;22;20246;-40
2023/10/03 01:35:22;;;;;;;28.17;18.20;;;21.30;1.00;;;;;;6307393;22;20393;-39
2023/10/03 01:37:51;;;;;;;24.73;17.50;;;21.30;1.00;;;;;;6307518;22;20658;-39
2023/10/03 01:40:16;;;;;;;25.70;17.53;;;21.30;1.00;;;;;;6308280;22;20186;-38
2023/10/03 01:42:46;;;;;;;25.47;18.13;;;21.30;1.00;;;;;;6307500;22;20382;-38
2023/10/03 01:45:21;;;;;;;27.23;17.73;;;21.30;1.00;;;;;;6309402;22;20148;-39
2023/10/03 01:47:51;;;;;;;24.70;18.03;;;21.20;1.00;;;;;;6308842;22;20427;-39
2023/10/03 01:50:20;;;;;;;25.30;16.90;;;21.20;1.00;;;;;;6307995;22;20381;-38
2023/10/03 01:52:47;;;;;;;23.77;17.50;;;21.30;1.00;;;;;;6307906;22;20355;-39
2023/10/03 01:55:17;;;;;;;26.70;18.30;;;21.20;1.00;;;;;;6307021;22;20480;-39
2023/10/03 01:57:44;;;;;;;27.43;17.90;;;21.20;1.00;;;;;;6281652;22;20460;-40
2023/10/03 02:00:27;;;;;;;29.57;18.97;;;21.20;1.00;;;;;;6307602;22;20487;-39
2023/10/03 02:03:13;;;;;;;26.37;18.63;;;21.20;1.00;;;;;;6306360;22;20390;-39
2023/10/03 02:05:42;;;;;;;24.97;17.93;;;21.20;1.00;;;;;;6305228;22;20386;-41
2023/10/03 02:08:12;;;;;;;23.37;16.70;;;21.20;1.00;;;;;;6305482;22;20489;-39
2023/10/03 02:10:39;;;;;;;24.60;16.50;;;21.20;1.00;;;;;;6306201;22;20651;-41
2023/10/03 02:13:11;;;;;;;24.07;17.13;;;21.20;1.00;;;;;;6306509;22;20447;-39
2023/10/03 02:15:38;;;;;;;26.13;18.90;;;21.20;1.00;;;;;;6306453;22;20493;-38
2023/10/03 02:18:05;;;;;;;25.60;17.37;;;21.10;1.00;;;;;;6306894;22;20434;-39
2023/10/03 02:20:38;;;;;;;24.13;17.43;;;21.10;1.00;;;;;;6307560;22;20426;-39
2023/10/03 02:23:05;;;;;;;27.13;18.10;;;21.10;1.00;;;;;;6307357;22;20526;-38
2023/10/03 02:25:37;;;;;;;24.90;17.70;;;21.10;1.00;;;;;;6306975;22;20358;-39
2023/10/03 02:28:05;;;;;;;25.77;18.60;;;21.00;1.00;;;;;;6307655;22;20378;-40
2023/10/03 02:30:31;;;;;;;22.40;16.77;;;21.10;1.00;;;;;;6308700;22;20451;-38
2023/10/03 02:32:57;;;;;;;21.90;15.77;;;21.00;1.00;;;;;;6308901;22;20419;-39
2023/10/03 02:35:25;;;;;;;25.07;17.43;;;21.10;1.00;;;;;;6308464;22;20390;-40
2023/10/03 02:37:52;;;;;;;23.67;16.53;;;21.00;1.00;;;;;;6308360;22;20359;-39
2023/10/03 02:40:22;;;;;;;23.93;17.57;;;21.00;1.00;;;;;;6308773;22;20456;-38
2023/10/03 02:42:54;;;;;;;23.83;17.30;;;21.00;1.00;;;;;;6310370;22;20385;-39
2023/10/03 02:57:56;;;;;;;21.37;14.63;;;21.10;1.00;;;;;;6306010;22;20456;-39
2023/10/03 03:00:22;;;;;;;19.93;13.70;;;21.00;1.00;;;;;;6308263;22;20425;-38
2023/10/03 03:02:49;;;;;;;21.37;15.43;;;21.00;1.00;;;;;;6307009;22;20219;-38
2023/10/03 03:05:15;;;;;;;23.70;15.50;;;21.00;1.00;;;;;;6308228;22;20159;-39
2023/10/03 03:07:44;;;;;;;22.83;15.00;;;21.10;1.00;;;;;;6308909;22;20354;-39
2023/10/03 03:10:13;;;;;;;20.60;14.30;;;21.00;1.00;;;;;;6309877;22;20417;-41
2023/10/03 03:12:40;;;;;;;18.40;13.90;;;21.00;1.00;;;;;;6308950;22;20401;-40
2023/10/03 03:15:07;;;;;;;22.33;14.50;;;21.00;1.00;;;;;;6309612;22;20409;-39
2023/10/03 03:17:33;;;;;;;19.87;14.70;;;21.00;1.00;;;;;;6309732;22;20759;-40
2023/10/03 03:20:02;;;;;;;20.77;15.40;;;21.00;1.00;;;;;;6309261;22;20402;-37
2023/10/03 03:22:29;;;;;;;22.00;15.87;;;21.00;1.00;;;;;;6309207;22;20139;-39
2023/10/03 03:24:58;;;;;;;19.93;14.50;;;21.00;1.00;;;;;;6307706;22;20378;-41
2023/10/03 03:27:26;;;;;;;18.00;14.33;;;21.00;1.00;;;;;;6307721;22;20384;-39
2023/10/03 03:30:22;;;;;;;23.00;14.90;;;21.00;1.00;;;;;;6308492;22;20835;-39
2023/10/03 03:32:45;;;;;;;19.97;13.37;;;21.00;1.00;;;;;;6308645;22;20399;-39
2023/10/03 03:35:10;;;;;;;21.50;15.30;;;21.00;1.00;;;;;;6308787;22;20766;-41
2023/10/03 03:37:37;;;;;;;18.67;12.60;;;21.00;1.00;;;;;;6308976;22;20462;-40
2023/10/03 03:40:12;;;;;;;20.53;14.00;;;21.00;1.00;;;;;;6309695;22;20175;-38
2023/10/03 03:42:38;;;;;;;20.40;13.80;;;21.00;1.00;;;;;;6310662;22;20381;-41
2023/10/03 03:45:04;;;;;;;19.07;14.20;;;20.90;1.00;;;;;;6309944;22;20477;-39
2023/10/03 03:47:33;;;;;;;24.13;14.60;;;20.90;1.00;;;;;;6309906;22;20376;-39
2023/10/03 03:50:01;;;;;;;19.60;13.10;;;20.90;1.00;;;;;;6307679;22;20351;-37
2023/10/03 03:52:29;;;;;;;18.40;14.00;;;20.90;1.00;;;;;;6307503;22;20450;-39
2023/10/03 03:54:55;;;;;;;20.83;13.70;;;20.90;1.00;;;;;;6309100;22;20480;-40
2023/10/03 03:57:21;;;;;;;19.50;13.70;;;21.00;1.00;;;;;;6308035;22;20438;-41
2023/10/03 03:59:47;;;;;;;18.57;13.70;;;21.00;1.00;;;;;;6307843;22;20265;-39
2023/10/03 04:02:13;;;;;;;21.00;13.40;;;21.00;1.00;;;;;;6307913;22;20125;-39
2023/10/03 04:04:39;;;;;;;19.47;13.23;;;21.00;1.00;;;;;;6307607;22;20642;-39
2023/10/03 04:07:05;;;;;;;17.33;12.80;;;21.00;1.00;;;;;;6307259;22;20379;-39
2023/10/03 04:09:31;;;;;;;18.13;13.50;;;21.00;1.00;;;;;;6307221;22;20155;-38
2023/10/03 04:11:59;;;;;;;15.83;12.37;;;21.00;1.00;;;;;;6307662;22;20170;-40
2023/10/03 04:14:24;;;;;;;16.60;12.37;;;21.10;1.00;;;;;;6308540;22;20385;-39
2023/10/03 04:16:50;;;;;;;18.27;12.37;;;21.10;1.00;;;;;;6308487;22;20379;-40
2023/10/03 04:19:15;;;;;;;16.73;12.53;;;21.10;1.00;;;;;;6309093;22;20549;-41
2023/10/03 04:21:41;;;;;;;18.30;14.20;;;21.10;1.00;;;;;;6308595;22;20155;-41
2023/10/03 04:24:09;;;;;;;17.00;11.90;;;21.10;1.00;;;;;;6308226;22;20148;-39
2023/10/03 04:26:36;;;;;;;18.67;13.63;;;21.10;1.00;;;;;;6307543;22;20162;-41
2023/10/03 04:29:02;;;;;;;19.43;13.33;;;21.00;1.00;;;;;;6307870;22;20370;-41
2023/10/03 04:31:27;;;;;;;17.90;13.60;;;21.00;1.00;;;;;;6307447;22;20381;-38
2023/10/03 04:33:54;;;;;;;16.13;12.27;;;21.00;1.00;;;;;;6306732;22;20152;-40
2023/10/03 04:36:24;;;;;;;19.03;14.50;;;21.00;1.00;;;;;;6309387;22;20228;-39
2023/10/03 04:38:50;;;;;;;18.23;13.00;;;21.00;1.00;;;;;;6308302;22;20505;-41
2023/10/03 04:41:17;;;;;;;17.73;12.93;;;21.00;1.00;;;;;;6308623;22;20422;-39
2023/10/03 04:43:43;;;;;;;18.33;13.30;;;21.00;1.00;;;;;;6307785;22;20124;-38
2023/10/03 04:46:08;;;;;;;17.17;12.60;;;20.90;1.00;;;;;;6310364;22;20374;-40
2023/10/03 04:48:36;;;;;;;16.20;11.77;;;20.90;1.00;;;;;;6309764;22;20242;-40
2023/10/03 04:51:02;;;;;;;17.87;11.97;;;21.00;1.00;;;;;;6309091;22;20148;-39
2023/10/03 04:53:27;;;;;;;18.97;12.90;;;21.00;1.00;;;;;;6309622;22;20412;-40
2023/10/03 04:55:53;;;;;;;17.83;11.77;;;21.00;1.00;;;;;;6309888;22;20147;-41
2023/10/03 04:58:19;;;;;;;16.77;12.77;;;21.00;1.00;;;;;;6309727;22;20566;-39
2023/10/03 05:00:45;;;;;;;16.50;12.50;;;21.00;1.00;;;;;;6309323;22;20176;-38
2023/10/03 05:03:11;;;;;;;17.90;13.60;;;21.00;1.00;;;;;;6309349;22;20148;-38
2023/10/03 05:05:37;;;;;;;15.93;11.73;;;21.00;1.00;;;;;;6281513;22;20382;-38
2023/10/03 05:08:04;;;;;;;17.67;12.43;;;21.00;1.00;;;;;;6282172;22;20351;-38
2023/10/03 05:10:30;;;;;;;17.50;11.53;;;21.00;1.00;;;;;;6309212;22;20476;-38
2023/10/03 05:12:57;;;;;;;16.20;11.17;;;21.00;1.00;;;;;;6309205;22;20482;-39
2023/10/03 05:15:26;;;;;;;16.50;11.43;;;21.00;1.00;;;;;;6307763;22;20374;-41
2023/10/03 05:17:52;;;;;;;18.17;12.63;;;20.90;1.00;;;;;;6308027;22;20392;-39
2023/10/03 05:20:18;;;;;;;16.10;12.07;;;20.90;1.00;;;;;;6307929;22;20422;-39
2023/10/03 05:22:47;;;;;;;15.10;12.17;;;20.90;1.00;;;;;;6308105;22;20443;-40
2023/10/03 05:25:18;;;;;;;15.60;11.90;;;20.90;1.00;;;;;;6308197;22;20465;-38
2023/10/03 05:27:48;;;;;;;15.70;11.63;;;20.90;1.00;;;;;;6307824;22;20443;-40
2023/10/03 05:30:14;;;;;;;16.23;11.60;;;20.90;1.00;;;;;;6306958;22;20854;-39
2023/10/03 05:32:42;;;;;;;15.20;12.37;;;20.90;1.00;;;;;;6307896;22;20816;-39
2023/10/03 05:35:09;;;;;;;13.20;10.63;;;20.90;1.00;;;;;;6308234;22;20793;-39
2023/10/03 05:37:35;;;;;;;12.87;9.90;;;20.90;1.00;;;;;;6281240;22;20386;-38
2023/10/03 05:40:11;;;;;;;15.70;10.30;;;20.90;1.00;;;;;;6308494;22;20418;-42
2023/10/03 05:42:40;;;;;;;15.77;11.20;;;21.00;1.00;;;;;;6306852;22;20584;-39
2023/10/03 05:45:12;;;;;;;13.90;11.67;;;21.00;1.00;;;;;;6307628;22;20405;-39
2023/10/03 05:47:39;;;;;;;13.23;10.63;;;21.00;1.00;;;;;;6280895;22;20402;-39
2023/10/03 05:50:05;;;;;;;15.17;11.43;;;21.00;1.00;;;;;;6280269;22;20626;-39
2023/10/03 05:52:31;;;;;;;14.00;10.73;;;21.00;1.00;;;;;;6307291;22;20371;-43
2023/10/03 05:54:57;;;;;;;17.10;13.23;;;21.10;1.00;;;;;;6306381;22;20587;-38
2023/10/03 05:57:24;;;;;;;14.40;11.03;;;21.10;1.00;;;;;;6307540;22;20437;-41
2023/10/03 05:59:50;;;;;;;13.63;10.50;;;21.20;1.00;;;;;;6309524;22;20498;-40
2023/10/03 06:02:15;;;;;;;13.30;10.30;;;21.20;1.00;;;;;;6306924;22;20420;-38
2023/10/03 06:04:41;;;;;;;13.13;10.17;;;21.20;1.00;;;;;;6309001;22;20354;-39
2023/10/03 06:07:06;;;;;;;13.40;10.77;;;21.30;1.00;;;;;;6310104;22;20163;-39
2023/10/03 06:09:33;;;;;;;12.63;9.97;;;21.30;1.00;;;;;;6308501;22;20160;-39
2023/10/03 06:11:59;;;;;;;15.67;10.73;;;21.40;1.00;;;;;;6309188;22;20148;-39
2023/10/03 06:14:25;;;;;;;14.60;11.53;;;21.50;1.00;;;;;;6280681;22;20919;-38
2023/10/03 06:16:50;;;;;;;13.93;10.57;;;21.60;1.00;;;;;;6308385;22;20354;-40
2023/10/03 06:19:18;;;;;;;13.40;10.60;;;21.80;1.00;;;;;;6308013;22;20191;-40
2023/10/03 06:21:45;;;;;;;11.43;9.53;;;21.80;1.00;;;;;;6307814;22;20503;-41
2023/10/03 06:24:11;;;;;;;13.03;10.47;;;21.90;1.00;;;;;;6307416;22;20396;-40
2023/10/03 06:26:37;;;;;;;12.40;9.70;;;22.00;1.00;;;;;;6307523;22;20707;-41
2023/10/03 06:29:03;;;;;;;13.00;10.30;;;22.00;1.00;;;;;;6307586;22;20385;-41
2023/10/03 06:31:28;;;;;;;13.03;9.90;;;22.10;1.00;;;;;;6307403;22;20139;-38
2023/10/03 06:33:54;;;;;;;10.63;9.30;;;22.20;1.00;;;;;;6307666;22;20235;-42
2023/10/03 06:36:20;;;;;;;11.57;9.20;;;22.30;1.00;;;;;;6309373;22;20175;-40
2023/10/03 06:38:46;;;;;;;12.30;9.03;;;22.50;1.00;;;;;;6308891;22;20159;-40
2023/10/03 06:41:19;;;;;;;12.60;10.17;;;22.60;1.00;;;;;;6308764;22;20496;-40
2023/10/03 06:43:44;;;;;;;11.63;9.43;;;22.80;1.00;;;;;;6309655;22;20125;-41
2023/10/03 06:46:10;;;;;;;12.73;9.67;;;23.00;1.00;;;;;;6310252;22;20393;-41
2023/10/03 06:48:36;;;;;;;10.60;8.90;;;23.20;1.00;;;;;;6308562;22;20203;-39
2023/10/03 06:51:05;;;;;;;10.23;8.13;;;23.30;1.00;;;;;;6307248;22;20152;-39
2023/10/03 06:53:31;;;;;;;9.07;7.67;;;23.40;1.00;;;;;;6279322;22;20179;-42
2023/10/03 06:55:57;;;;;;;10.10;8.17;;;23.70;1.00;;;;;;6306608;22;20355;-39
2023/10/03 06:58:24;;;;;;;8.50;7.57;;;23.80;1.00;;;;;;6306769;22;20398;-39
2023/10/03 07:00:54;;;;;;;10.33;7.97;;;24.00;1.00;;;;;;6306366;22;20171;-40
2023/10/03 07:03:21;;;;;;;11.50;8.70;;;24.10;1.00;;;;;;6308794;22;20401;-42
2023/10/03 07:05:46;;;;;;;10.73;8.57;;;24.30;1.00;;;;;;6308820;22;20374;-41
2023/10/03 07:08:12;;;;;;;9.67;8.23;;;24.40;1.00;;;;;;6309793;22;20738;-39
2023/10/03 07:10:41;;;;;;;12.37;8.23;;;24.60;1.00;;;;;;6310068;22;20638;-39
2023/10/03 07:13:07;;;;;;;12.33;8.27;;;24.70;1.00;;;;;;6310161;22;20382;-41
2023/10/03 07:15:33;;;;;;;11.57;9.13;;;24.80;1.00;;;;;;6309329;22;20455;-39
2023/10/03 07:17:59;;;;;;;11.67;9.20;;;24.90;1.00;;;;;;6308642;22;20848;-38
2023/10/03 07:20:24;;;;;;;10.10;9.00;;;25.10;1.00;;;;;;6281408;22;20250;-40
2023/10/03 07:22:50;;;;;;;12.43;8.20;;;25.20;1.00;;;;;;6307864;22;20135;-40
2023/10/03 07:25:16;;;;;;;10.63;8.67;;;25.30;1.00;;;;;;6307320;22;20159;-42
2023/10/03 07:27:41;;;;;;;10.27;8.63;;;25.40;1.00;;;;;;6307659;22;20188;-38
2023/10/03 07:30:09;;;;;;;10.20;8.10;;;25.50;1.00;;;;;;6306848;22;20482;-39
2023/10/03 07:32:34;;;;;;;10.30;7.67;;;25.70;1.00;;;;;;6307864;22;20155;-39
2023/10/03 07:35:00;;;;;;;11.83;7.90;;;25.90;1.00;;;;;;6307070;22;20701;-39
2023/10/03 07:37:26;;;;;;;9.03;8.13;;;26.00;1.00;;;;;;6307206;22;20136;-39
2023/10/03 07:39:52;;;;;;;10.43;8.80;;;26.20;1.00;;;;;;6308382;22;20232;-39
2023/10/03 07:42:19;;;;;;;9.80;8.60;;;26.20;1.00;;;;;;6308153;22;20182;-38
2023/10/03 07:44:44;;;;;;;9.10;8.10;;;26.40;1.00;;;;;;6307458;22;20156;-39
2023/10/03 07:47:12;;;;;;;11.13;8.00;;;26.60;1.00;;;;;;6306102;22;20468;-41
2023/10/03 07:49:41;;;;;;;9.77;8.77;;;26.70;1.00;;;;;;6305574;22;20139;-41
2023/10/03 07:52:06;;;;;;;8.77;7.77;;;26.90;1.00;;;;;;6277666;22;20386;-41
2023/10/03 07:54:33;;;;;;;9.40;7.93;;;27.20;1.00;;;;;;6304156;22;20467;-40
2023/10/03 07:57:03;;;;;;;9.17;7.57;;;27.30;1.00;;;;;;6303981;22;20312;-39
2023/10/03 07:59:30;;;;;;;10.57;8.93;;;27.50;1.00;;;;;;6305850;22;20799;-40
2023/10/03 08:01:56;;;;;;;8.60;7.20;;;27.70;1.00;;;;;;6306531;22;20355;-40
2023/10/03 08:04:23;;;;;;;8.30;7.50;;;27.90;1.00;;;;;;6306107;22;20361;-40
2023/10/03 08:06:49;;;;;;;9.60;7.83;;;28.10;1.00;;;;;;6305907;22;20148;-45
2023/10/03 08:09:16;;;;;;;8.07;7.27;;;28.30;1.00;;;;;;6308190;22;20382;-39
2023/10/03 08:11:46;;;;;;;10.73;8.80;;;28.50;1.00;;;;;;6252648;22;20402;-39
2023/10/03 08:14:13;;;;;;;9.10;8.20;;;28.80;1.00;;;;;;6306170;22;20438;-39
2023/10/03 08:16:43;;;;;;;8.30;7.37;;;29.20;1.00;;;;;;6306431;22;20385;-40
2023/10/03 08:19:10;;;;;;;8.13;7.33;;;29.60;1.00;;;;;;6306777;22;20386;-40
2023/10/03 08:21:40;;;;;;;8.33;7.13;;;30.00;1.00;;;;;;6305033;22;20840;-39
2023/10/03 08:24:14;;;;;;;8.70;7.43;;;30.30;1.00;;;;;;6306081;22;20419;-39
2023/10/03 08:26:46;;;;;;;8.37;7.63;;;30.50;1.00;;;;;;6305976;22;20425;-40
2023/10/03 08:29:21;;;;;;;9.87;7.87;;;30.60;1.00;;;;;;6278747;22;20389;-41
2023/10/03 08:31:49;;;;;;;10.27;7.30;;;30.70;1.00;;;;;;6305549;22;20350;-40
2023/10/03 08:34:16;;;;;;;8.23;7.03;;;30.90;1.00;;;;;;6305300;22;20357;-39
2023/10/03 08:36:42;;;;;;;7.90;7.20;;;31.00;1.00;;;;;;6304193;22;20953;-39
2023/10/03 08:39:14;;;;;;;10.57;7.87;;;31.10;1.00;;;;;;6304131;22;20410;-40
2023/10/03 08:41:47;;;;;;;8.83;7.70;;;30.90;1.00;;;;;;6305501;22;20432;-39
2023/10/03 08:44:14;;;;;;;7.90;7.20;;;30.80;1.00;;;;;;6306104;22;20366;-41
2023/10/03 08:46:59;;;;;;;8.50;7.43;;;30.60;1.00;;;;;;6278896;22;20454;-41
2023/10/03 08:49:38;;;;;;;9.33;8.13;;;30.40;1.00;;;;;;6305353;22;20386;-42
2023/10/03 08:52:09;;;;;;;7.90;6.93;;;30.60;1.00;;;;;;6307081;22;20440;-41
2023/10/03 08:54:39;;;;;;;8.10;7.30;;;30.80;1.00;;;;;;6305121;22;20377;-39
2023/10/03 08:57:05;;;;;;;8.90;7.03;;;30.90;1.00;;;;;;6303655;22;20404;-42
2023/10/03 08:59:31;;;;;;;11.70;8.10;;;30.80;1.00;;;;;;6250639;22;20391;-40
2023/10/03 09:02:05;;;;;;;9.67;8.33;;;30.70;1.00;;;;;;6303237;22;20758;-40
2023/10/03 09:04:38;;;;;;;8.03;7.33;;;30.50;1.00;;;;;;6278438;22;20749;-40
2023/10/03 09:07:08;;;;;;;11.17;7.23;;;30.10;1.00;;;;;;6280404;22;20543;-41
2023/10/03 09:09:35;;;;;;;9.10;8.20;;;29.90;1.00;;;;;;6304438;22;20402;-42
2023/10/03 09:12:02;;;;;;;9.40;7.90;;;29.60;1.00;;;;;;6278925;22;20781;-41
2023/10/03 09:14:28;;;;;;;7.70;7.00;;;29.50;1.00;;;;;;6305586;22;20385;-38
2023/10/03 09:16:59;;;;;;;8.70;7.80;;;29.20;1.00;;;;;;6279923;22;20378;-41
2023/10/03 09:19:47;;;;;;;9.33;8.43;;;29.10;1.00;;;;;;6306048;22;20151;-38
2023/10/03 09:22:30;;;;;;;7.80;7.00;;;29.00;1.00;;;;;;6305511;22;20382;-38
2023/10/03 09:24:57;;;;;;;10.27;7.10;;;28.80;1.00;;;;;;6305601;22;20406;-41
2023/10/03 09:27:30;;;;;;;7.40;6.70;;;28.70;1.00;;;;;;6304709;22;20392;-38
2023/10/03 09:29:58;;;;;;;7.57;6.87;;;28.60;1.00;;;;;;6305338;22;20235;-40
2023/10/03 09:32:24;;;;;;;8.40;7.10;;;28.50;1.00;;;;;;6278519;22;20454;-40
2023/10/03 09:34:57;;;;;;;8.00;7.10;;;28.40;1.00;;;;;;6280399;22;20371;-42
2023/10/03 09:37:32;;;;;;;8.20;6.73;;;28.20;1.00;;;;;;6307894;22;20401;-41
2023/10/03 09:40:00;;;;;;;6.87;6.17;;;28.00;1.00;;;;;;6305362;22;20433;-40
2023/10/03 09:42:25;;;;;;;8.10;6.57;;;28.20;1.00;;;;;;6279733;22;21005;-41
2023/10/03 09:44:57;;;;;;;6.93;6.20;;;28.40;1.00;;;;;;6306404;22;20393;-40
2023/10/03 09:47:30;;;;;;;8.03;7.23;;;28.50;1.00;;;;;;6305954;22;20265;-39
2023/10/03 09:50:03;;;;;;;7.00;6.40;;;28.60;1.00;;;;;;6306222;22;20354;-41
2023/10/03 09:52:30;;;;;;;7.47;6.77;;;29.00;1.00;;;;;;6306148;22;20355;-38
2023/10/03 09:54:59;;;;;;;10.43;7.17;;;29.60;1.00;;;;;;6305197;22;20468;-42
2023/10/03 09:57:28;;;;;;;9.47;7.63;;;30.20;1.00;;;;;;6304172;22;21010;-42
2023/10/03 09:59:55;;;;;;;10.20;6.80;;;30.90;1.00;;;;;;6276256;22;20441;-44
2023/10/03 10:02:35;;;;;;;8.00;7.20;;;31.40;1.00;;;;;;6305486;22;20417;-40
2023/10/03 10:05:08;;;;;;;8.10;7.10;;;31.50;1.00;;;;;;6280642;22;20980;-43
2023/10/03 10:07:53;;;;;;;7.27;6.57;;;31.10;1.00;;;;;;6277236;22;20341;-44
2023/10/03 10:10:19;;;;;;;7.03;6.33;;;30.60;1.00;;;;;;6303455;22;20362;-41
2023/10/03 10:13:13;;;;;;;7.90;7.10;;;30.20;1.00;;;;;;6276986;22;20477;-45
2023/10/03 10:16:01;;;;;;;7.57;6.77;;;29.90;1.00;;;;;;6305414;22;20378;-46
2023/10/03 10:18:44;;;;;;;7.13;6.43;;;29.10;1.00;;;;;;6303034;22;20404;-41
2023/10/03 10:21:32;;;;;;;8.40;7.43;;;28.70;1.00;;;;;;6304927;22;20483;-40
2023/10/03 10:24:15;;;;;;;7.77;6.97;;;28.60;1.00;;;;;;6278543;22;20477;-40
2023/10/03 10:26:42;;;;;;;9.27;7.00;;;28.60;1.00;;;;;;6277079;22;20398;-41
2023/10/03 10:29:08;;;;;;;7.90;7.20;;;28.50;1.00;;;;;;6302893;22;20361;-42
2023/10/03 10:31:37;;;;;;;9.47;6.93;;;28.40;1.00;;;;;;6302421;22;20377;-40
2023/10/03 10:34:20;;;;;;;8.40;7.27;;;28.40;1.00;;;;;;6303658;22;20397;-43
2023/10/03 10:36:57;;;;;;;8.60;7.70;;;28.40;1.00;;;;;;6303809;22;20378;-42
2023/10/03 10:39:23;;;;;;;9.33;7.63;;;28.40;1.00;;;;;;6304014;22;20386;-46
2023/10/03 10:42:11;;;;;;;9.27;7.40;;;28.30;1.00;;;;;;6277978;22;20459;-43
2023/10/03 10:44:39;;;;;;;7.33;6.70;;;28.30;1.00;;;;;;6279298;22;20389;-42
2023/10/03 10:47:07;;;;;;;8.17;7.37;;;28.60;1.00;;;;;;6279032;22;20710;-40
2023/10/03 10:49:34;;;;;;;6.90;6.27;;;29.60;1.00;;;;;;6279134;22;20416;-42
2023/10/03 10:52:02;;;;;;;7.43;6.63;;;30.20;1.00;;;;;;6307824;22;20378;-41
2023/10/03 10:54:28;;;;;;;7.40;6.70;;;30.90;1.00;;;;;;6306476;22;20401;-42
2023/10/03 10:57:01;;;;;;;9.47;6.50;;;31.80;1.00;;;;;;6304995;22;20484;-42
2023/10/03 10:59:27;;;;;;;8.17;7.33;;;32.70;1.00;;;;;;6305558;22;20386;-41
2023/10/03 11:01:53;;;;;;;7.70;6.87;;;33.30;1.00;;;;;;6277388;22;20384;-41
2023/10/03 11:04:23;;;;;;;7.87;7.17;;;33.70;1.00;;;;;;6280823;22;20362;-44
2023/10/03 11:06:52;;;;;;;8.40;7.47;;;33.60;1.00;;;;;;6308515;22;20235;-41
2023/10/03 11:09:20;;;;;;;8.13;7.27;;;34.20;1.00;;;;;;6308329;22;20378;-43
2023/10/03 11:11:47;;;;;;;8.37;7.67;;;34.60;1.00;;;;;;6305065;22;20492;-42
2023/10/03 11:14:23;;;;;;;7.50;6.90;;;34.70;1.00;;;;;;6306049;22;20385;-41
2023/10/03 11:16:49;;;;;;;8.47;7.57;;;34.40;1.00;;;;;;6279605;22;20375;-40
2023/10/03 11:19:15;;;;;;;10.13;7.77;;;33.40;1.00;;;;;;6280777;22;20829;-41
2023/10/03 11:21:41;;;;;;;8.37;7.33;;;33.00;1.00;;;;;;6307210;22;20179;-39
2023/10/03 11:24:11;;;;;;;9.07;7.50;;;32.70;1.00;;;;;;6307914;22;20171;-42
2023/10/03 11:26:50;;;;;;;7.90;7.20;;;32.30;1.00;;;;;;6255228;22;20194;-42
2023/10/03 11:29:37;;;;;;;7.60;6.90;;;31.80;1.00;;;;;;6306892;22;20363;-42
2023/10/03 11:32:04;;;;;;;8.97;8.07;;;30.90;1.00;;;;;;6305525;22;20454;-44
2023/10/03 11:34:35;;;;;;;9.20;8.33;;;30.60;1.00;;;;;;6304924;22;20362;-42
2023/10/03 11:37:04;;;;;;;8.20;7.50;;;30.60;1.00;;;;;;6277437;22;20964;-41
2023/10/03 11:39:37;;;;;;;8.07;7.37;;;30.80;1.00;;;;;;6305498;22;20423;-41
2023/10/03 11:42:24;;;;;;;9.07;8.27;;;30.60;1.00;;;;;;6305732;22;20395;-43
2023/10/03 11:45:00;;;;;;;9.67;7.90;;;30.00;1.00;;;;;;6305504;22;20846;-40
2023/10/03 11:47:26;;;;;;;9.47;7.97;;;29.20;1.00;;;;;;6304677;22;20706;-41
2023/10/03 11:49:52;;;;;;;9.13;8.27;;;28.80;1.00;;;;;;6305033;22;20928;-41
2023/10/03 11:52:18;;;;;;;10.83;8.00;;;28.60;1.00;;;;;;6306006;22;20390;-41
2023/10/03 11:54:45;;;;;;;8.03;7.27;;;28.70;1.00;;;;;;6307035;22;20152;-41
2023/10/03 11:57:12;;;;;;;8.10;7.30;;;28.80;1.00;;;;;;6306488;22;20433;-42
2023/10/03 11:59:40;;;;;;;8.87;7.93;;;28.70;1.00;;;;;;6306197;22;20808;-41
2023/10/03 12:02:06;;;;;;;7.93;7.13;;;28.70;1.00;;;;;;6306825;22;20645;-41
2023/10/03 12:04:34;;;;;;;8.93;7.80;;;28.60;1.00;;;;;;6306616;22;20354;-42
2023/10/03 12:07:01;;;;;;;7.73;7.03;;;28.40;1.00;;;;;;6306399;22;20421;-42
2023/10/03 12:09:27;;;;;;;8.40;7.60;;;28.10;1.00;;;;;;6306780;22;20936;-43
2023/10/03 12:11:53;;;;;;;8.30;7.07;;;27.70;1.00;;;;;;6307221;22;20386;-41
2023/10/03 12:14:18;;;;;;;9.63;8.50;;;27.60;1.00;;;;;;6305562;22;20527;-42
2023/10/03 12:16:51;;;;;;;8.67;7.87;;;27.40;1.00;;;;;;6304061;22;20132;-42
2023/10/03 12:19:19;;;;;;;8.90;8.00;;;27.20;1.00;;;;;;6307083;22;20428;-41
2023/10/03 12:21:47;;;;;;;8.90;8.10;;;27.00;1.00;;;;;;6308676;22;20740;-41
2023/10/03 12:24:17;;;;;;;10.80;9.40;;;26.70;1.00;;;;;;6307898;22;20393;-43
2023/10/03 12:26:43;;;;;;;9.17;8.17;;;26.50;1.00;;;;;;6306096;22;20815;-45
2023/10/03 12:29:10;;;;;;;10.13;8.83;;;26.20;1.00;;;;;;6304463;22;20350;-46
2023/10/03 12:31:36;;;;;;;9.13;7.43;;;26.20;1.00;;;;;;6304034;22;20366;-43
2023/10/03 12:34:01;;;;;;;9.90;8.60;;;25.90;1.00;;;;;;6306958;22;20378;-42
2023/10/03 12:36:33;;;;;;;10.80;9.73;;;25.60;1.00;;;;;;6306908;22;20152;-43
2023/10/03 12:39:08;;;;;;;10.73;9.67;;;25.50;1.00;;;;;;6280964;22;20226;-42
2023/10/03 12:41:36;;;;;;;10.27;9.13;;;25.50;1.00;;;;;;6306090;22;21109;-43
2023/10/03 12:44:02;;;;;;;10.07;8.90;;;25.60;1.00;;;;;;6307657;22;20357;-39
2023/10/03 12:46:28;;;;;;;10.50;8.77;;;25.60;1.00;;;;;;6307283;22;20385;-38
2023/10/03 12:48:54;;;;;;;11.13;10.00;;;25.60;1.00;;;;;;6307026;22;20408;-39
2023/10/03 12:51:20;;;;;;;10.30;8.03;;;25.30;1.00;;;;;;6305323;22;20152;-39
2023/10/03 12:53:45;;;;;;;10.37;7.43;;;25.10;1.00;;;;;;6304809;22;20386;-40
2023/10/03 12:56:11;;;;;;;14.27;8.30;;;24.90;1.00;;;;;;6304629;22;20196;-42
2023/10/03 12:58:38;;;;;;;11.07;8.73;;;25.00;1.00;;;;;;6306717;22;20170;-39
2023/10/03 13:01:04;;;;;;;15.60;8.30;;;24.90;1.00;;;;;;6306457;22;20895;-40
2023/10/03 13:03:31;;;;;;;8.33;7.63;;;25.10;1.00;;;;;;6308092;22;20440;-40
2023/10/03 13:05:56;;;;;;;8.83;7.97;;;25.50;1.00;;;;;;6308426;22;20152;-41
2023/10/03 13:08:26;;;;;;;10.20;7.73;;;25.90;1.00;;;;;;6307074;22;20452;-42
2023/10/03 13:11:05;;;;;;;9.10;8.20;;;26.70;1.00;;;;;;6308544;22;20132;-41